sensor_id;sensor_type;location;lat;lon;timestamp;pressure;altitude;pressure_sealevel;temperature;humidity
76519;BME280;67029;51.054;13.798;2023-04-01T00:01:34;98529.48;;;14.12;58.07
76519;BME280;67029;51.054;13.798;2023-04-01T00:04:04;98531.39;;;14.11;57.91
76519;BME280;67029;51.054;13.798;2023-04-01T00:06:34;98526.59;;;14.13;58.43
76519;BME280;67029;51.054;13.798;2023-04-01T00:09:04;98524.10;;;14.09;58.77
76519;BME280;67029;51.054;13.798;2023-04-01T00:11:34;98520.27;;;14.10;58.57
76519;BME280;67029;51.054;13.798;2023-04-01T00:14:05;98518.91;;;14.14;58.55
76519;BME280;67029;51.054;13.798;2023-04-01T00:16:35;98517.87;;;14.07;58.40
76519;BME280;67029;51.054;13.798;2023-04-01T00:19:05;98512.33;;;13.98;58.83
76519;BME280;67029;51.054;13.798;2023-04-01T00:21:35;98523.55;;;13.90;59.07
76519;BME280;67029;51.054;13.798;2023-04-01T00:24:05;98517.34;;;13.83;59.03
76519;BME280;67029;51.054;13.798;2023-04-01T00:26:35;98515.91;;;13.83;58.93
76519;BME280;67029;51.054;13.798;2023-04-01T00:29:05;98520.23;;;13.83;59.11
76519;BME280;67029;51.054;13.798;2023-04-01T00:31:35;98522.98;;;13.87;58.88
76519;BME280;67029;51.054;13.798;2023-04-01T00:34:05;98521.02;;;13.91;58.84
76519;BME280;67029;51.054;13.798;2023-04-01T00:36:35;98521.40;;;13.86;58.86
76519;BME280;67029;51.054;13.798;2023-04-01T00:39:05;98525.15;;;13.89;58.80
76519;BME280;67029;51.054;13.798;2023-04-01T00:41:35;98526.14;;;13.88;58.82
76519;BME280;67029;51.054;13.798;2023-04-01T00:44:15;98530.81;;;13.91;58.96
76519;BME280;67029;51.054;13.798;2023-04-01T00:46:35;98521.16;;;13.86;59.07
76519;BME280;67029;51.054;13.798;2023-04-01T00:49:05;98520.72;;;13.74;59.39
76519;BME280;67029;51.054;13.798;2023-04-01T00:51:37;98528.03;;;13.83;59.65
76519;BME280;67029;51.054;13.798;2023-04-01T00:54:07;98535.09;;;13.77;59.55
76519;BME280;67029;51.054;13.798;2023-04-01T00:56:39;98535.08;;;13.80;59.59
76519;BME280;67029;51.054;13.798;2023-04-01T00:59:11;98533.89;;;13.80;59.56
76519;BME280;67029;51.054;13.798;2023-04-01T01:01:38;98517.53;;;13.84;59.55
76519;BME280;67029;51.054;13.798;2023-04-01T01:04:28;98519.13;;;13.90;59.42
76519;BME280;67029;51.054;13.798;2023-04-01T01:06:57;98521.52;;;13.89;59.41
76519;BME280;67029;51.054;13.798;2023-04-01T01:09:23;98520.64;;;13.88;59.46
76519;BME280;67029;51.054;13.798;2023-04-01T01:11:48;98516.42;;;13.89;59.43
76519;BME280;67029;51.054;13.798;2023-04-01T01:16:44;98520.72;;;13.92;59.10
76519;BME280;67029;51.054;13.798;2023-04-01T01:21:49;98516.15;;;13.83;59.11
76519;BME280;67029;51.054;13.798;2023-04-01T01:24:33;98515.79;;;13.87;58.99
76519;BME280;67029;51.054;13.798;2023-04-01T01:27:02;98516.32;;;13.83;58.97
76519;BME280;67029;51.054;13.798;2023-04-01T01:32:08;98521.23;;;13.85;58.74
76519;BME280;67029;51.054;13.798;2023-04-01T01:36:48;98524.05;;;13.80;58.84
76519;BME280;67029;51.054;13.798;2023-04-01T01:39:17;98516.58;;;13.72;58.90
76519;BME280;67029;51.054;13.798;2023-04-01T01:41:47;98525.34;;;13.66;59.06
76519;BME280;67029;51.054;13.798;2023-04-01T01:44:17;98527.41;;;13.67;59.17
76519;BME280;67029;51.054;13.798;2023-04-01T01:46:48;98518.19;;;13.63;59.09
76519;BME280;67029;51.054;13.798;2023-04-01T01:49:18;98524.66;;;13.68;59.04
76519;BME280;67029;51.054;13.798;2023-04-01T01:51:48;98526.55;;;13.74;58.87
76519;BME280;67029;51.054;13.798;2023-04-01T01:54:18;98533.49;;;13.84;58.59
76519;BME280;67029;51.054;13.798;2023-04-01T01:56:51;98529.43;;;13.82;58.55
76519;BME280;67029;51.054;13.798;2023-04-01T01:59:20;98528.84;;;13.85;58.45
76519;BME280;67029;51.054;13.798;2023-04-01T02:01:52;98524.45;;;13.80;58.56
76519;BME280;67029;51.054;13.798;2023-04-01T02:04:19;98528.14;;;13.77;58.69
76519;BME280;67029;51.054;13.798;2023-04-01T02:07:03;98526.65;;;13.76;58.67
76519;BME280;67029;51.054;13.798;2023-04-01T02:09:20;98533.77;;;13.79;58.60
76519;BME280;67029;51.054;13.798;2023-04-01T02:11:57;98525.69;;;13.84;58.47
76519;BME280;67029;51.054;13.798;2023-04-01T02:14:23;98522.52;;;13.84;58.34
76519;BME280;67029;51.054;13.798;2023-04-01T02:16:58;98528.27;;;13.79;58.52
76519;BME280;67029;51.054;13.798;2023-04-01T02:19:27;98519.58;;;13.71;58.55
76519;BME280;67029;51.054;13.798;2023-04-01T02:21:57;98522.27;;;13.81;58.41
76519;BME280;67029;51.054;13.798;2023-04-01T02:24:25;98523.48;;;13.78;58.46
76519;BME280;67029;51.054;13.798;2023-04-01T02:26:54;98528.95;;;13.76;58.50
76519;BME280;67029;51.054;13.798;2023-04-01T02:29:25;98529.08;;;13.72;58.42
76519;BME280;67029;51.054;13.798;2023-04-01T02:31:55;98523.89;;;13.64;58.55
76519;BME280;67029;51.054;13.798;2023-04-01T02:34:26;98529.47;;;13.68;58.54
76519;BME280;67029;51.054;13.798;2023-04-01T02:36:57;98522.27;;;13.71;58.43
76519;BME280;67029;51.054;13.798;2023-04-01T02:39:26;98535.48;;;13.80;58.18
76519;BME280;67029;51.054;13.798;2023-04-01T02:41:56;98533.73;;;13.77;58.27
76519;BME280;67029;51.054;13.798;2023-04-01T02:44:26;98535.73;;;13.73;58.38
76519;BME280;67029;51.054;13.798;2023-04-01T02:46:56;98533.56;;;13.72;58.24
76519;BME280;67029;51.054;13.798;2023-04-01T02:49:26;98536.33;;;13.68;58.35
76519;BME280;67029;51.054;13.798;2023-04-01T02:51:56;98534.22;;;13.70;58.31
76519;BME280;67029;51.054;13.798;2023-04-01T02:54:26;98539.95;;;13.71;58.32
76519;BME280;67029;51.054;13.798;2023-04-01T02:56:56;98546.24;;;13.68;58.40
76519;BME280;67029;51.054;13.798;2023-04-01T02:59:26;98545.09;;;13.73;58.29
76519;BME280;67029;51.054;13.798;2023-04-01T03:01:56;98545.25;;;13.71;58.20
76519;BME280;67029;51.054;13.798;2023-04-01T03:04:26;98540.88;;;13.61;58.52
76519;BME280;67029;51.054;13.798;2023-04-01T03:06:56;98546.60;;;13.57;58.48
76519;BME280;67029;51.054;13.798;2023-04-01T03:09:26;98549.07;;;13.58;58.50
76519;BME280;67029;51.054;13.798;2023-04-01T03:11:56;98544.91;;;13.57;58.48
76519;BME280;67029;51.054;13.798;2023-04-01T03:14:26;98552.33;;;13.59;58.51
76519;BME280;67029;51.054;13.798;2023-04-01T03:16:56;98554.48;;;13.70;58.19
76519;BME280;67029;51.054;13.798;2023-04-01T03:19:26;98552.89;;;13.69;58.09
76519;BME280;67029;51.054;13.798;2023-04-01T03:21:56;98552.74;;;13.64;58.21
76519;BME280;67029;51.054;13.798;2023-04-01T03:24:26;98556.72;;;13.71;58.08
76519;BME280;67029;51.054;13.798;2023-04-01T03:26:56;98555.50;;;13.70;57.94
76519;BME280;67029;51.054;13.798;2023-04-01T03:29:26;98557.48;;;13.67;57.94
76519;BME280;67029;51.054;13.798;2023-04-01T03:31:56;98564.05;;;13.65;58.00
76519;BME280;67029;51.054;13.798;2023-04-01T03:34:26;98556.18;;;13.63;58.06
76519;BME280;67029;51.054;13.798;2023-04-01T03:36:57;98562.40;;;13.61;58.05
76519;BME280;67029;51.054;13.798;2023-04-01T03:39:27;98558.09;;;13.61;58.09
76519;BME280;67029;51.054;13.798;2023-04-01T03:41:57;98559.81;;;13.62;57.98
76519;BME280;67029;51.054;13.798;2023-04-01T03:44:30;98565.80;;;13.67;57.91
76519;BME280;67029;51.054;13.798;2023-04-01T03:46:57;98559.51;;;13.62;57.90
76519;BME280;67029;51.054;13.798;2023-04-01T03:49:27;98567.88;;;13.59;57.94
76519;BME280;67029;51.054;13.798;2023-04-01T03:51:57;98561.98;;;13.63;57.84
76519;BME280;67029;51.054;13.798;2023-04-01T03:54:27;98568.38;;;13.61;57.84
76519;BME280;67029;51.054;13.798;2023-04-01T03:56:57;98566.83;;;13.58;57.90
76519;BME280;67029;51.054;13.798;2023-04-01T03:59:27;98572.70;;;13.65;57.78
76519;BME280;67029;51.054;13.798;2023-04-01T04:01:57;98571.84;;;13.68;57.60
76519;BME280;67029;51.054;13.798;2023-04-01T04:04:27;98577.36;;;13.54;57.80
76519;BME280;67029;51.054;13.798;2023-04-01T04:06:57;98574.19;;;13.60;57.77
76519;BME280;67029;51.054;13.798;2023-04-01T04:09:29;98577.23;;;13.71;57.48
76519;BME280;67029;51.054;13.798;2023-04-01T04:11:57;98578.87;;;13.76;57.27
76519;BME280;67029;51.054;13.798;2023-04-01T04:14:27;98575.88;;;13.77;57.10
76519;BME280;67029;51.054;13.798;2023-04-01T04:16:58;98578.09;;;13.74;57.15
76519;BME280;67029;51.054;13.798;2023-04-01T04:19:31;98578.71;;;13.73;57.03
76519;BME280;67029;51.054;13.798;2023-04-01T04:21:58;98581.38;;;13.78;57.00
76519;BME280;67029;51.054;13.798;2023-04-01T04:24:28;98587.50;;;13.82;56.84
76519;BME280;67029;51.054;13.798;2023-04-01T04:26:58;98594.19;;;13.81;56.82
76519;BME280;67029;51.054;13.798;2023-04-01T04:29:28;98596.56;;;13.83;56.74
76519;BME280;67029;51.054;13.798;2023-04-01T04:31:58;98597.72;;;13.83;56.53
76519;BME280;67029;51.054;13.798;2023-04-01T04:34:28;98593.13;;;13.83;56.47
76519;BME280;67029;51.054;13.798;2023-04-01T04:36:58;98599.61;;;13.77;56.68
76519;BME280;67029;51.054;13.798;2023-04-01T04:39:28;98600.48;;;13.79;56.62
76519;BME280;67029;51.054;13.798;2023-04-01T04:41:58;98604.41;;;13.82;56.52
76519;BME280;67029;51.054;13.798;2023-04-01T04:44:28;98607.95;;;13.79;56.45
76519;BME280;67029;51.054;13.798;2023-04-01T04:46:58;98605.08;;;13.76;56.50
76519;BME280;67029;51.054;13.798;2023-04-01T04:49:28;98607.97;;;13.76;56.55
76519;BME280;67029;51.054;13.798;2023-04-01T04:51:58;98609.23;;;13.89;56.23
76519;BME280;67029;51.054;13.798;2023-04-01T04:54:29;98616.77;;;13.99;55.77
76519;BME280;67029;51.054;13.798;2023-04-01T04:56:59;98610.73;;;13.97;55.87
76519;BME280;67029;51.054;13.798;2023-04-01T04:59:29;98614.98;;;14.01;55.81
76519;BME280;67029;51.054;13.798;2023-04-01T05:01:59;98614.80;;;13.99;55.60
76519;BME280;67029;51.054;13.798;2023-04-01T05:04:29;98614.64;;;13.87;55.96
76519;BME280;67029;51.054;13.798;2023-04-01T05:07:00;98614.98;;;13.89;56.00
76519;BME280;67029;51.054;13.798;2023-04-01T05:09:30;98621.84;;;13.88;56.02
76519;BME280;67029;51.054;13.798;2023-04-01T05:12:00;98619.31;;;13.92;55.90
76519;BME280;67029;51.054;13.798;2023-04-01T05:14:30;98623.05;;;13.90;55.91
76519;BME280;67029;51.054;13.798;2023-04-01T05:17:00;98625.99;;;13.93;55.86
76519;BME280;67029;51.054;13.798;2023-04-01T05:19:30;98627.29;;;14.00;55.72
76519;BME280;67029;51.054;13.798;2023-04-01T05:22:00;98627.88;;;13.98;55.63
76519;BME280;67029;51.054;13.798;2023-04-01T05:24:30;98626.59;;;13.89;55.89
76519;BME280;67029;51.054;13.798;2023-04-01T05:27:00;98632.92;;;13.85;56.04
76519;BME280;67029;51.054;13.798;2023-04-01T05:29:30;98629.77;;;13.78;56.19
76519;BME280;67029;51.054;13.798;2023-04-01T05:32:00;98629.84;;;13.84;56.08
76519;BME280;67029;51.054;13.798;2023-04-01T05:34:30;98636.48;;;13.78;56.20
76519;BME280;67029;51.054;13.798;2023-04-01T05:37:00;98636.70;;;13.81;56.17
76519;BME280;67029;51.054;13.798;2023-04-01T05:39:30;98637.38;;;13.83;56.32
76519;BME280;67029;51.054;13.798;2023-04-01T05:42:00;98637.67;;;13.87;56.27
76519;BME280;67029;51.054;13.798;2023-04-01T05:44:31;98630.94;;;13.89;56.26
76519;BME280;67029;51.054;13.798;2023-04-01T05:47:01;98637.65;;;13.84;56.40
76519;BME280;67029;51.054;13.798;2023-04-01T05:49:33;98640.91;;;13.91;56.19
76519;BME280;67029;51.054;13.798;2023-04-01T05:52:02;98641.27;;;13.94;56.18
76519;BME280;67029;51.054;13.798;2023-04-01T05:54:32;98639.98;;;13.93;56.29
76519;BME280;67029;51.054;13.798;2023-04-01T05:57:02;98643.19;;;14.00;56.23
76519;BME280;67029;51.054;13.798;2023-04-01T05:59:32;98639.38;;;14.09;56.15
76519;BME280;67029;51.054;13.798;2023-04-01T06:02:02;98646.84;;;14.01;56.17
76519;BME280;67029;51.054;13.798;2023-04-01T06:04:37;98648.46;;;13.97;56.40
76519;BME280;67029;51.054;13.798;2023-04-01T06:07:13;98648.29;;;13.98;56.44
76519;BME280;67029;51.054;13.798;2023-04-01T06:09:34;98647.39;;;14.10;56.31
76519;BME280;67029;51.054;13.798;2023-04-01T06:12:29;98649.33;;;14.14;56.32
76519;BME280;67029;51.054;13.798;2023-04-01T06:15:03;98645.85;;;14.18;56.20
76519;BME280;67029;51.054;13.798;2023-04-01T06:17:26;98647.47;;;14.14;56.28
76519;BME280;67029;51.054;13.798;2023-04-01T06:22:35;98655.77;;;14.20;56.07
76519;BME280;67029;51.054;13.798;2023-04-01T06:29:44;98658.97;;;14.17;56.11
76519;BME280;67029;51.054;13.798;2023-04-01T06:32:25;98665.29;;;14.24;55.93
76519;BME280;67029;51.054;13.798;2023-04-01T06:35:02;98657.79;;;14.29;55.69
76519;BME280;67029;51.054;13.798;2023-04-01T06:39:52;98658.83;;;14.32;55.22
76519;BME280;67029;51.054;13.798;2023-04-01T06:44:57;98660.02;;;14.32;55.30
76519;BME280;67029;51.054;13.798;2023-04-01T06:47:32;98663.66;;;14.37;55.12
76519;BME280;67029;51.054;13.798;2023-04-01T06:54:47;98667.52;;;14.56;54.00
76519;BME280;67029;51.054;13.798;2023-04-01T06:57:31;98672.53;;;14.60;54.03
76519;BME280;67029;51.054;13.798;2023-04-01T06:59:43;98670.25;;;14.65;53.76
76519;BME280;67029;51.054;13.798;2023-04-01T07:02:29;98671.04;;;14.69;53.52
76519;BME280;67029;51.054;13.798;2023-04-01T07:04:47;98664.76;;;14.72;53.24
76519;BME280;67029;51.054;13.798;2023-04-01T07:09:50;98671.98;;;14.79;53.31
76519;BME280;67029;51.054;13.798;2023-04-01T07:12:28;98667.89;;;14.82;53.18
76519;BME280;67029;51.054;13.798;2023-04-01T07:14:49;98679.17;;;14.83;53.03
76519;BME280;67029;51.054;13.798;2023-04-01T07:17:31;98682.58;;;14.92;52.73
76519;BME280;67029;51.054;13.798;2023-04-01T07:22:34;98676.67;;;14.80;52.92
76519;BME280;67029;51.054;13.798;2023-04-01T07:24:48;98678.48;;;14.83;52.80
76519;BME280;67029;51.054;13.798;2023-04-01T07:27:18;98687.96;;;14.90;52.70
76519;BME280;67029;51.054;13.798;2023-04-01T07:29:48;98687.67;;;14.92;52.36
76519;BME280;67029;51.054;13.798;2023-04-01T07:32:45;98684.98;;;14.84;52.50
76519;BME280;67029;51.054;13.798;2023-04-01T07:34:54;98688.38;;;14.89;52.84
76519;BME280;67029;51.054;13.798;2023-04-01T07:37:28;98689.66;;;14.92;52.63
76519;BME280;67029;51.054;13.798;2023-04-01T07:40:18;98694.84;;;15.06;52.22
76519;BME280;67029;51.054;13.798;2023-04-01T07:50:27;98696.09;;;15.20;51.52
76519;BME280;67029;51.054;13.798;2023-04-01T07:52:40;98702.92;;;15.10;51.83
76519;BME280;67029;51.054;13.798;2023-04-01T07:55:09;98706.41;;;14.98;51.97
76519;BME280;67029;51.054;13.798;2023-04-01T07:57:35;98702.86;;;15.00;52.18
76519;BME280;67029;51.054;13.798;2023-04-01T08:07:46;98715.14;;;15.18;51.53
76519;BME280;67029;51.054;13.798;2023-04-01T08:12:42;98718.39;;;15.24;51.79
76519;BME280;67029;51.054;13.798;2023-04-01T08:22:33;98729.39;;;15.62;51.48
76519;BME280;67029;51.054;13.798;2023-04-01T08:25:02;98722.09;;;15.76;51.39
76519;BME280;67029;51.054;13.798;2023-04-01T08:27:39;98717.40;;;15.82;51.19
76519;BME280;67029;51.054;13.798;2023-04-01T08:30:21;98732.51;;;15.90;50.00
76519;BME280;67029;51.054;13.798;2023-04-01T08:32:36;98720.40;;;15.82;50.19
76519;BME280;67029;51.054;13.798;2023-04-01T08:35:40;98728.52;;;15.81;50.61
76519;BME280;67029;51.054;13.798;2023-04-01T08:37:36;98724.90;;;15.84;50.27
76519;BME280;67029;51.054;13.798;2023-04-01T08:45:23;98719.56;;;15.90;49.28
76519;BME280;67029;51.054;13.798;2023-04-01T08:50:19;98716.84;;;15.89;49.54
76519;BME280;67029;51.054;13.798;2023-04-01T08:52:52;98730.45;;;15.97;49.95
76519;BME280;67029;51.054;13.798;2023-04-01T08:55:36;98729.25;;;16.01;49.75
76519;BME280;67029;51.054;13.798;2023-04-01T08:57:53;98726.25;;;16.10;49.54
76519;BME280;67029;51.054;13.798;2023-04-01T09:05:34;98725.05;;;16.11;49.89
76519;BME280;67029;51.054;13.798;2023-04-01T09:13:02;98732.69;;;16.39;49.44
76519;BME280;67029;51.054;13.798;2023-04-01T09:20:19;98730.25;;;16.29;48.60
76519;BME280;67029;51.054;13.798;2023-04-01T09:23:08;98734.20;;;16.18;49.00
76519;BME280;67029;51.054;13.798;2023-04-01T09:27:56;98734.89;;;16.12;49.10
76519;BME280;67029;51.054;13.798;2023-04-01T09:30:33;98735.59;;;16.19;48.93
76519;BME280;67029;51.054;13.798;2023-04-01T09:37:59;98742.56;;;16.40;48.73
76519;BME280;67029;51.054;13.798;2023-04-01T09:40:31;98740.91;;;16.47;48.63
76519;BME280;67029;51.054;13.798;2023-04-01T09:45:34;98740.36;;;16.47;48.25
76519;BME280;67029;51.054;13.798;2023-04-01T09:50:40;98746.95;;;16.62;47.77
76519;BME280;67029;51.054;13.798;2023-04-01T09:58:22;98746.39;;;16.37;48.02
76519;BME280;67029;51.054;13.798;2023-04-01T10:08:26;98757.62;;;16.37;47.80
76519;BME280;67029;51.054;13.798;2023-04-01T10:10:35;98751.49;;;16.32;47.96
76519;BME280;67029;51.054;13.798;2023-04-01T10:15:47;98758.53;;;16.42;48.15
76519;BME280;67029;51.054;13.798;2023-04-01T10:18:09;98756.55;;;16.42;47.95
76519;BME280;67029;51.054;13.798;2023-04-01T10:20:46;98759.17;;;16.51;48.06
76519;BME280;67029;51.054;13.798;2023-04-01T10:23:20;98761.53;;;16.58;47.70
76519;BME280;67029;51.054;13.798;2023-04-01T10:28:08;98756.41;;;16.74;47.65
76519;BME280;67029;51.054;13.798;2023-04-01T10:48:34;98764.03;;;16.84;47.35
76519;BME280;67029;51.054;13.798;2023-04-01T11:38:42;98762.66;;;21.46;39.75
76519;BME280;67029;51.054;13.798;2023-04-01T11:43:37;98773.52;;;20.44;41.07
76519;BME280;67029;51.054;13.798;2023-04-01T12:21:10;98765.56;;;21.71;41.38
76519;BME280;67029;51.054;13.798;2023-04-01T13:13:42;98782.44;;;24.40;35.68
76519;BME280;67029;51.054;13.798;2023-04-01T13:18:49;98782.84;;;23.39;36.68
76519;BME280;67029;51.054;13.798;2023-04-01T13:23:45;98782.59;;;22.47;38.13
76519;BME280;67029;51.054;13.798;2023-04-01T13:33:35;98789.46;;;23.21;37.19
76519;BME280;67029;51.054;13.798;2023-04-01T13:43:37;98791.52;;;22.27;37.10
76519;BME280;67029;51.054;13.798;2023-04-01T13:48:57;98791.62;;;22.17;37.60
76519;BME280;67029;51.054;13.798;2023-04-01T13:56:12;98785.36;;;22.40;37.94
76519;BME280;67029;51.054;13.798;2023-04-01T14:06:19;98792.79;;;22.67;36.98
76519;BME280;67029;51.054;13.798;2023-04-01T14:14:04;98795.29;;;22.39;36.41
76519;BME280;67029;51.054;13.798;2023-04-01T14:16:22;98797.30;;;22.21;36.62
76519;BME280;67029;51.054;13.798;2023-04-01T14:41:30;98810.14;;;23.73;34.92
76519;BME280;67029;51.054;13.798;2023-04-01T14:43:54;98817.47;;;23.51;34.81
76519;BME280;67029;51.054;13.798;2023-04-01T14:48:38;98824.15;;;22.61;36.14
76519;BME280;67029;51.054;13.798;2023-04-01T14:51:20;98819.85;;;22.27;36.62
76519;BME280;67029;51.054;13.798;2023-04-01T14:53:42;98829.37;;;21.98;37.18
76519;BME280;67029;51.054;13.798;2023-04-01T14:56:08;98826.31;;;21.59;37.64
76519;BME280;67029;51.054;13.798;2023-04-01T14:58:44;98835.88;;;21.03;38.25
76519;BME280;67029;51.054;13.798;2023-04-01T15:04:02;98835.25;;;20.52;39.61
76519;BME280;67029;51.054;13.798;2023-04-01T15:11:37;98838.09;;;20.35;39.27
76519;BME280;67029;51.054;13.798;2023-04-01T15:18:53;98851.20;;;20.48;38.97
76519;BME280;67029;51.054;13.798;2023-04-01T15:21:22;98852.77;;;20.52;38.75
76519;BME280;67029;51.054;13.798;2023-04-01T15:23:57;98858.12;;;20.49;38.86
76519;BME280;67029;51.054;13.798;2023-04-01T15:26:24;98858.81;;;20.49;38.96
76519;BME280;67029;51.054;13.798;2023-04-01T15:36:53;98869.46;;;20.18;39.17
76519;BME280;67029;51.054;13.798;2023-04-01T16:59:21;98953.95;;;18.83;41.89
76519;BME280;67029;51.054;13.798;2023-04-01T18:19:25;99034.67;;;20.62;41.20
76519;BME280;67029;51.054;13.798;2023-04-01T18:21:50;99038.06;;;20.06;42.01
76519;BME280;67029;51.054;13.798;2023-04-01T18:24:32;99038.24;;;19.57;42.86
76519;BME280;67029;51.054;13.798;2023-04-01T18:26:45;99041.87;;;19.13;43.60
76519;BME280;67029;51.054;13.798;2023-04-01T18:37:00;99055.88;;;18.64;45.42
76519;BME280;67029;51.054;13.798;2023-04-01T18:41:56;99061.22;;;18.38;46.78
76519;BME280;67029;51.054;13.798;2023-04-01T18:59:32;99083.19;;;18.31;47.47
76519;BME280;67029;51.054;13.798;2023-04-01T19:59:42;99152.86;;;17.59;48.90
76519;BME280;67029;51.054;13.798;2023-04-01T21:45:02;99263.25;;;19.34;45.77
76519;BME280;67029;51.054;13.798;2023-04-01T22:02:32;99274.32;;;16.87;51.69
76519;BME280;67029;51.054;13.798;2023-04-01T22:05:04;99276.94;;;16.58;52.41
76519;BME280;67029;51.054;13.798;2023-04-01T22:07:41;99274.52;;;16.33;53.71
76519;BME280;67029;51.054;13.798;2023-04-01T22:10:09;99280.50;;;16.09;54.16
76519;BME280;67029;51.054;13.798;2023-04-01T22:20:16;99294.83;;;15.41;56.16
76519;BME280;67029;51.054;13.798;2023-04-01T22:22:30;99298.32;;;15.21;55.85
76519;BME280;67029;51.054;13.798;2023-04-01T22:30:04;99306.24;;;15.15;57.16
76519;BME280;67029;51.054;13.798;2023-04-01T22:40:16;99321.84;;;14.88;57.90
76519;BME280;67029;51.054;13.798;2023-04-01T22:42:43;99328.19;;;14.82;58.18
76519;BME280;67029;51.054;13.798;2023-04-01T22:45:06;99330.20;;;14.75;58.11
76519;BME280;67029;51.054;13.798;2023-04-01T22:52:39;99338.36;;;14.57;58.89
76519;BME280;67029;51.054;13.798;2023-04-01T22:55:23;99341.05;;;14.54;59.04
76519;BME280;67029;51.054;13.798;2023-04-01T22:57:39;99349.56;;;14.50;59.09
76519;BME280;67029;51.054;13.798;2023-04-01T23:02:29;99350.20;;;14.42;59.36
76519;BME280;67029;51.054;13.798;2023-04-01T23:12:35;99368.51;;;14.33;59.80
76519;BME280;67029;51.054;13.798;2023-04-01T23:15:11;99369.95;;;14.32;59.85
76519;BME280;67029;51.054;13.798;2023-04-01T23:20:32;99368.28;;;14.24;60.15
76519;BME280;67029;51.054;13.798;2023-04-01T23:27:44;99389.81;;;14.07;59.90
76519;BME280;67029;51.054;13.798;2023-04-01T23:35:25;99398.67;;;13.92;60.22
76519;BME280;67029;51.054;13.798;2023-04-01T23:37:33;99401.55;;;13.91;60.17
76519;BME280;67029;51.054;13.798;2023-04-01T23:39:58;99410.53;;;13.93;59.98
76519;BME280;67029;51.054;13.798;2023-04-01T23:42:50;99409.84;;;13.95;60.20
76519;BME280;67029;51.054;13.798;2023-04-01T23:45:16;99409.70;;;13.91;60.15
76519;BME280;67029;51.054;13.798;2023-04-01T23:47:34;99419.51;;;13.85;60.19
76519;BME280;67029;51.054;13.798;2023-04-01T23:50:18;99421.27;;;13.81;60.14
76519;BME280;67029;51.054;13.798;2023-04-01T23:52:51;99424.15;;;13.80;60.28
76519;BME280;67029;51.054;13.798;2023-04-01T23:55:17;99425.59;;;13.71;59.99
76519;BME280;67029;51.054;13.798;2023-04-01T23:57:42;99432.70;;;13.64;60.43
